sensor_id;sensor_type;location;lat;lon;timestamp;P1;durP1;ratioP1;P2;durP2;ratioP2
66212;SDS011;53015;50.046;8.238;2023-02-24T00:02:21;24.40;;;12.30;;
66212;SDS011;53015;50.046;8.238;2023-02-24T00:04:46;33.53;;;12.75;;
66212;SDS011;53015;50.046;8.238;2023-02-24T00:07:12;25.20;;;11.60;;
66212;SDS011;53015;50.046;8.238;2023-02-24T00:09:38;28.02;;;13.35;;
66212;SDS011;53015;50.046;8.238;2023-02-24T00:12:05;25.48;;;12.38;;
66212;SDS011;53015;50.046;8.238;2023-02-24T00:14:32;27.98;;;13.63;;
66212;SDS011;53015;50.046;8.238;2023-02-24T00:16:59;29.92;;;12.75;;
66212;SDS011;53015;50.046;8.238;2023-02-24T00:19:25;25.13;;;12.52;;
66212;SDS011;53015;50.046;8.238;2023-02-24T00:21:52;26.60;;;12.52;;
66212;SDS011;53015;50.046;8.238;2023-02-24T00:24:18;25.88;;;13.02;;
66212;SDS011;53015;50.046;8.238;2023-02-24T00:26:44;27.25;;;14.13;;
66212;SDS011;53015;50.046;8.238;2023-02-24T00:29:10;31.77;;;13.48;;
66212;SDS011;53015;50.046;8.238;2023-02-24T00:31:36;28.80;;;13.48;;
66212;SDS011;53015;50.046;8.238;2023-02-24T00:34:02;29.92;;;14.05;;
66212;SDS011;53015;50.046;8.238;2023-02-24T00:36:28;27.60;;;13.13;;
66212;SDS011;53015;50.046;8.238;2023-02-24T00:38:55;27.52;;;12.77;;
66212;SDS011;53015;50.046;8.238;2023-02-24T00:41:23;33.25;;;13.32;;
66212;SDS011;53015;50.046;8.238;2023-02-24T00:43:49;28.88;;;14.20;;
66212;SDS011;53015;50.046;8.238;2023-02-24T00:46:16;32.47;;;13.95;;
66212;SDS011;53015;50.046;8.238;2023-02-24T00:48:43;26.75;;;14.52;;
66212;SDS011;53015;50.046;8.238;2023-02-24T00:51:09;29.73;;;14.00;;
66212;SDS011;53015;50.046;8.238;2023-02-24T00:53:35;28.30;;;13.15;;
66212;SDS011;53015;50.046;8.238;2023-02-24T00:56:01;25.70;;;12.88;;
66212;SDS011;53015;50.046;8.238;2023-02-24T00:58:27;26.73;;;13.63;;
66212;SDS011;53015;50.046;8.238;2023-02-24T01:00:52;28.42;;;12.80;;
66212;SDS011;53015;50.046;8.238;2023-02-24T01:03:18;26.92;;;13.35;;
66212;SDS011;53015;50.046;8.238;2023-02-24T01:05:44;31.73;;;13.95;;
66212;SDS011;53015;50.046;8.238;2023-02-24T01:08:10;26.05;;;13.43;;
66212;SDS011;53015;50.046;8.238;2023-02-24T01:10:35;27.17;;;13.80;;
66212;SDS011;53015;50.046;8.238;2023-02-24T01:13:01;26.00;;;12.55;;
66212;SDS011;53015;50.046;8.238;2023-02-24T01:15:26;28.13;;;13.13;;
66212;SDS011;53015;50.046;8.238;2023-02-24T01:17:52;27.23;;;13.88;;
66212;SDS011;53015;50.046;8.238;2023-02-24T01:20:18;25.95;;;13.02;;
66212;SDS011;53015;50.046;8.238;2023-02-24T01:22:45;24.13;;;12.73;;
66212;SDS011;53015;50.046;8.238;2023-02-24T01:25:12;26.40;;;13.70;;
66212;SDS011;53015;50.046;8.238;2023-02-24T01:27:38;27.75;;;13.27;;
66212;SDS011;53015;50.046;8.238;2023-02-24T01:30:04;25.60;;;12.52;;
66212;SDS011;53015;50.046;8.238;2023-02-24T01:32:30;25.42;;;12.68;;
66212;SDS011;53015;50.046;8.238;2023-02-24T01:34:56;25.33;;;12.68;;
66212;SDS011;53015;50.046;8.238;2023-02-24T01:37:22;25.35;;;12.32;;
66212;SDS011;53015;50.046;8.238;2023-02-24T01:39:47;26.48;;;12.45;;
66212;SDS011;53015;50.046;8.238;2023-02-24T01:42:15;26.55;;;12.60;;
66212;SDS011;53015;50.046;8.238;2023-02-24T01:45:01;27.05;;;13.80;;
66212;SDS011;53015;50.046;8.238;2023-02-24T01:47:30;26.17;;;13.10;;
66212;SDS011;53015;50.046;8.238;2023-02-24T01:49:55;27.08;;;13.27;;
66212;SDS011;53015;50.046;8.238;2023-02-24T01:52:22;28.45;;;12.65;;
66212;SDS011;53015;50.046;8.238;2023-02-24T01:54:51;25.65;;;12.02;;
66212;SDS011;53015;50.046;8.238;2023-02-24T01:57:20;24.73;;;12.35;;
66212;SDS011;53015;50.046;8.238;2023-02-24T01:59:50;25.05;;;12.25;;
66212;SDS011;53015;50.046;8.238;2023-02-24T02:02:17;24.88;;;12.38;;
66212;SDS011;53015;50.046;8.238;2023-02-24T02:04:45;25.23;;;12.35;;
66212;SDS011;53015;50.046;8.238;2023-02-24T02:07:19;22.55;;;12.27;;
66212;SDS011;53015;50.046;8.238;2023-02-24T02:09:47;27.73;;;13.07;;
66212;SDS011;53015;50.046;8.238;2023-02-24T02:12:14;25.55;;;12.55;;
66212;SDS011;53015;50.046;8.238;2023-02-24T02:14:40;26.45;;;13.27;;
66212;SDS011;53015;50.046;8.238;2023-02-24T02:17:10;26.55;;;12.55;;
66212;SDS011;53015;50.046;8.238;2023-02-24T02:19:54;25.05;;;12.63;;
66212;SDS011;53015;50.046;8.238;2023-02-24T02:25:37;27.08;;;12.45;;
66212;SDS011;53015;50.046;8.238;2023-02-24T02:28:38;24.52;;;11.77;;
66212;SDS011;53015;50.046;8.238;2023-02-24T02:31:27;22.35;;;11.80;;
66212;SDS011;53015;50.046;8.238;2023-02-24T02:34:11;29.02;;;12.50;;
66212;SDS011;53015;50.046;8.238;2023-02-24T02:36:52;27.80;;;12.20;;
66212;SDS011;53015;50.046;8.238;2023-02-24T02:39:25;27.40;;;13.35;;
66212;SDS011;53015;50.046;8.238;2023-02-24T02:41:58;26.88;;;12.93;;
66212;SDS011;53015;50.046;8.238;2023-02-24T02:44:34;26.08;;;13.07;;
66212;SDS011;53015;50.046;8.238;2023-02-24T02:47:08;27.15;;;13.15;;
66212;SDS011;53015;50.046;8.238;2023-02-24T02:49:38;24.45;;;11.63;;
66212;SDS011;53015;50.046;8.238;2023-02-24T02:52:08;26.90;;;12.95;;
66212;SDS011;53015;50.046;8.238;2023-02-24T02:54:38;30.52;;;13.80;;
66212;SDS011;53015;50.046;8.238;2023-02-24T02:57:08;27.88;;;12.25;;
66212;SDS011;53015;50.046;8.238;2023-02-24T02:59:46;23.85;;;11.55;;
66212;SDS011;53015;50.046;8.238;2023-02-24T03:02:15;21.35;;;11.10;;
66212;SDS011;53015;50.046;8.238;2023-02-24T03:04:45;25.63;;;12.43;;
66212;SDS011;53015;50.046;8.238;2023-02-24T03:07:15;25.25;;;11.75;;
66212;SDS011;53015;50.046;8.238;2023-02-24T03:09:43;24.85;;;11.38;;
66212;SDS011;53015;50.046;8.238;2023-02-24T03:12:13;26.48;;;12.25;;
66212;SDS011;53015;50.046;8.238;2023-02-24T03:14:41;24.38;;;11.55;;
66212;SDS011;53015;50.046;8.238;2023-02-24T03:17:10;25.10;;;11.70;;
66212;SDS011;53015;50.046;8.238;2023-02-24T03:19:41;20.58;;;10.10;;
66212;SDS011;53015;50.046;8.238;2023-02-24T03:22:12;24.20;;;11.40;;
66212;SDS011;53015;50.046;8.238;2023-02-24T03:24:41;24.98;;;11.57;;
66212;SDS011;53015;50.046;8.238;2023-02-24T03:27:09;22.48;;;11.55;;
66212;SDS011;53015;50.046;8.238;2023-02-24T03:29:38;24.30;;;11.68;;
66212;SDS011;53015;50.046;8.238;2023-02-24T03:32:11;23.60;;;11.38;;
66212;SDS011;53015;50.046;8.238;2023-02-24T03:34:42;25.70;;;12.05;;
66212;SDS011;53015;50.046;8.238;2023-02-24T03:37:13;28.98;;;12.73;;
66212;SDS011;53015;50.046;8.238;2023-02-24T03:39:39;27.42;;;12.30;;
66212;SDS011;53015;50.046;8.238;2023-02-24T03:42:05;26.63;;;12.10;;
66212;SDS011;53015;50.046;8.238;2023-02-24T03:44:34;21.90;;;11.57;;
66212;SDS011;53015;50.046;8.238;2023-02-24T03:47:00;30.38;;;12.07;;
66212;SDS011;53015;50.046;8.238;2023-02-24T03:49:26;25.85;;;11.73;;
66212;SDS011;53015;50.046;8.238;2023-02-24T03:51:54;21.85;;;10.63;;
66212;SDS011;53015;50.046;8.238;2023-02-24T03:54:36;22.55;;;11.70;;
66212;SDS011;53015;50.046;8.238;2023-02-24T03:57:15;25.25;;;11.95;;
66212;SDS011;53015;50.046;8.238;2023-02-24T03:59:49;25.20;;;12.25;;
66212;SDS011;53015;50.046;8.238;2023-02-24T04:02:22;29.17;;;12.43;;
66212;SDS011;53015;50.046;8.238;2023-02-24T04:04:52;25.80;;;12.70;;
66212;SDS011;53015;50.046;8.238;2023-02-24T04:07:26;26.52;;;12.70;;
66212;SDS011;53015;50.046;8.238;2023-02-24T04:10:04;24.95;;;11.65;;
66212;SDS011;53015;50.046;8.238;2023-02-24T04:12:34;22.27;;;11.15;;
66212;SDS011;53015;50.046;8.238;2023-02-24T04:15:08;26.10;;;12.88;;
66212;SDS011;53015;50.046;8.238;2023-02-24T04:17:38;26.00;;;12.45;;
66212;SDS011;53015;50.046;8.238;2023-02-24T04:20:08;25.38;;;12.10;;
66212;SDS011;53015;50.046;8.238;2023-02-24T04:22:35;24.67;;;12.63;;
66212;SDS011;53015;50.046;8.238;2023-02-24T04:25:02;24.00;;;12.15;;
66212;SDS011;53015;50.046;8.238;2023-02-24T04:27:29;24.92;;;11.60;;
66212;SDS011;53015;50.046;8.238;2023-02-24T04:29:55;25.98;;;12.15;;
66212;SDS011;53015;50.046;8.238;2023-02-24T04:32:24;23.35;;;11.68;;
66212;SDS011;53015;50.046;8.238;2023-02-24T04:34:52;25.58;;;11.32;;
66212;SDS011;53015;50.046;8.238;2023-02-24T04:37:17;25.35;;;11.52;;
66212;SDS011;53015;50.046;8.238;2023-02-24T04:39:44;24.40;;;11.90;;
66212;SDS011;53015;50.046;8.238;2023-02-24T04:42:10;21.60;;;11.32;;
66212;SDS011;53015;50.046;8.238;2023-02-24T04:44:36;23.40;;;12.00;;
66212;SDS011;53015;50.046;8.238;2023-02-24T04:47:01;25.27;;;11.77;;
66212;SDS011;53015;50.046;8.238;2023-02-24T04:49:27;27.00;;;12.35;;
66212;SDS011;53015;50.046;8.238;2023-02-24T04:51:52;23.92;;;11.85;;
66212;SDS011;53015;50.046;8.238;2023-02-24T04:54:19;23.92;;;11.68;;
66212;SDS011;53015;50.046;8.238;2023-02-24T04:56:45;27.80;;;12.02;;
66212;SDS011;53015;50.046;8.238;2023-02-24T04:59:12;27.55;;;12.35;;
66212;SDS011;53015;50.046;8.238;2023-02-24T05:01:38;25.08;;;12.55;;
66212;SDS011;53015;50.046;8.238;2023-02-24T05:04:05;26.67;;;12.15;;
66212;SDS011;53015;50.046;8.238;2023-02-24T05:06:30;26.77;;;12.10;;
66212;SDS011;53015;50.046;8.238;2023-02-24T05:08:56;30.08;;;13.20;;
66212;SDS011;53015;50.046;8.238;2023-02-24T05:11:21;29.92;;;12.85;;
66212;SDS011;53015;50.046;8.238;2023-02-24T05:13:48;29.30;;;12.93;;
66212;SDS011;53015;50.046;8.238;2023-02-24T05:16:15;25.88;;;13.15;;
66212;SDS011;53015;50.046;8.238;2023-02-24T05:18:42;25.02;;;12.88;;
66212;SDS011;53015;50.046;8.238;2023-02-24T05:21:09;28.17;;;13.90;;
66212;SDS011;53015;50.046;8.238;2023-02-24T05:23:36;28.30;;;13.65;;
66212;SDS011;53015;50.046;8.238;2023-02-24T05:26:04;23.40;;;12.63;;
66212;SDS011;53015;50.046;8.238;2023-02-24T05:28:32;25.50;;;13.43;;
66212;SDS011;53015;50.046;8.238;2023-02-24T05:31:02;30.38;;;14.73;;
66212;SDS011;53015;50.046;8.238;2023-02-24T05:33:30;26.27;;;12.93;;
66212;SDS011;53015;50.046;8.238;2023-02-24T05:35:55;31.88;;;13.25;;
66212;SDS011;53015;50.046;8.238;2023-02-24T05:38:21;26.33;;;13.60;;
66212;SDS011;53015;50.046;8.238;2023-02-24T05:40:46;28.10;;;14.00;;
66212;SDS011;53015;50.046;8.238;2023-02-24T05:43:12;31.05;;;13.82;;
66212;SDS011;53015;50.046;8.238;2023-02-24T05:45:38;28.33;;;14.65;;
66212;SDS011;53015;50.046;8.238;2023-02-24T05:48:04;31.80;;;14.40;;
66212;SDS011;53015;50.046;8.238;2023-02-24T05:50:30;29.15;;;13.60;;
66212;SDS011;53015;50.046;8.238;2023-02-24T05:52:56;29.02;;;13.73;;
66212;SDS011;53015;50.046;8.238;2023-02-24T05:55:22;29.65;;;13.75;;
66212;SDS011;53015;50.046;8.238;2023-02-24T05:57:47;32.50;;;13.95;;
66212;SDS011;53015;50.046;8.238;2023-02-24T06:00:13;27.77;;;13.85;;
66212;SDS011;53015;50.046;8.238;2023-02-24T06:02:39;29.25;;;14.75;;
66212;SDS011;53015;50.046;8.238;2023-02-24T06:05:05;32.13;;;15.25;;
66212;SDS011;53015;50.046;8.238;2023-02-24T06:07:32;29.15;;;14.25;;
66212;SDS011;53015;50.046;8.238;2023-02-24T06:09:57;34.05;;;14.07;;
66212;SDS011;53015;50.046;8.238;2023-02-24T06:12:24;29.67;;;14.80;;
66212;SDS011;53015;50.046;8.238;2023-02-24T06:14:50;32.28;;;15.38;;
66212;SDS011;53015;50.046;8.238;2023-02-24T06:17:16;33.13;;;14.75;;
66212;SDS011;53015;50.046;8.238;2023-02-24T06:19:42;33.08;;;15.70;;
66212;SDS011;53015;50.046;8.238;2023-02-24T06:22:10;30.75;;;14.90;;
66212;SDS011;53015;50.046;8.238;2023-02-24T06:24:37;28.70;;;14.85;;
66212;SDS011;53015;50.046;8.238;2023-02-24T06:27:03;28.52;;;14.23;;
66212;SDS011;53015;50.046;8.238;2023-02-24T06:29:29;32.22;;;15.93;;
66212;SDS011;53015;50.046;8.238;2023-02-24T06:31:55;28.52;;;15.07;;
66212;SDS011;53015;50.046;8.238;2023-02-24T06:34:21;34.38;;;15.32;;
66212;SDS011;53015;50.046;8.238;2023-02-24T06:36:47;30.00;;;15.93;;
66212;SDS011;53015;50.046;8.238;2023-02-24T06:39:13;30.65;;;16.20;;
66212;SDS011;53015;50.046;8.238;2023-02-24T06:41:39;29.15;;;15.32;;
66212;SDS011;53015;50.046;8.238;2023-02-24T06:44:05;29.80;;;15.77;;
66212;SDS011;53015;50.046;8.238;2023-02-24T06:46:30;29.95;;;15.32;;
66212;SDS011;53015;50.046;8.238;2023-02-24T06:48:56;29.38;;;14.40;;
66212;SDS011;53015;50.046;8.238;2023-02-24T06:51:21;35.70;;;15.82;;
66212;SDS011;53015;50.046;8.238;2023-02-24T06:53:47;31.00;;;15.57;;
66212;SDS011;53015;50.046;8.238;2023-02-24T06:56:15;33.42;;;16.17;;
66212;SDS011;53015;50.046;8.238;2023-02-24T06:58:41;33.45;;;16.95;;
66212;SDS011;53015;50.046;8.238;2023-02-24T07:01:07;31.98;;;14.60;;
66212;SDS011;53015;50.046;8.238;2023-02-24T07:03:34;29.35;;;15.30;;
66212;SDS011;53015;50.046;8.238;2023-02-24T07:05:59;30.90;;;16.30;;
66212;SDS011;53015;50.046;8.238;2023-02-24T07:08:26;28.40;;;14.65;;
66212;SDS011;53015;50.046;8.238;2023-02-24T07:10:52;26.05;;;13.30;;
66212;SDS011;53015;50.046;8.238;2023-02-24T07:13:18;28.48;;;15.02;;
66212;SDS011;53015;50.046;8.238;2023-02-24T07:15:44;27.17;;;15.63;;
66212;SDS011;53015;50.046;8.238;2023-02-24T07:18:10;31.23;;;15.80;;
66212;SDS011;53015;50.046;8.238;2023-02-24T07:20:35;27.33;;;14.93;;
66212;SDS011;53015;50.046;8.238;2023-02-24T07:23:01;30.02;;;15.52;;
66212;SDS011;53015;50.046;8.238;2023-02-24T07:25:26;30.48;;;14.85;;
66212;SDS011;53015;50.046;8.238;2023-02-24T07:27:52;26.90;;;13.98;;
66212;SDS011;53015;50.046;8.238;2023-02-24T07:30:17;28.05;;;14.05;;
66212;SDS011;53015;50.046;8.238;2023-02-24T07:32:43;25.73;;;14.25;;
66212;SDS011;53015;50.046;8.238;2023-02-24T07:35:09;29.25;;;13.93;;
66212;SDS011;53015;50.046;8.238;2023-02-24T07:37:34;26.35;;;13.10;;
66212;SDS011;53015;50.046;8.238;2023-02-24T07:40:00;26.48;;;13.65;;
66212;SDS011;53015;50.046;8.238;2023-02-24T07:42:25;26.35;;;13.27;;
66212;SDS011;53015;50.046;8.238;2023-02-24T07:44:51;26.65;;;14.15;;
66212;SDS011;53015;50.046;8.238;2023-02-24T07:47:16;25.65;;;13.57;;
66212;SDS011;53015;50.046;8.238;2023-02-24T07:49:42;23.70;;;13.02;;
66212;SDS011;53015;50.046;8.238;2023-02-24T07:52:08;29.20;;;13.30;;
66212;SDS011;53015;50.046;8.238;2023-02-24T07:54:34;25.52;;;13.20;;
66212;SDS011;53015;50.046;8.238;2023-02-24T07:57:00;34.47;;;13.70;;
66212;SDS011;53015;50.046;8.238;2023-02-24T07:59:26;26.50;;;13.10;;
66212;SDS011;53015;50.046;8.238;2023-02-24T08:01:53;25.40;;;12.45;;
66212;SDS011;53015;50.046;8.238;2023-02-24T08:04:19;24.67;;;11.98;;
66212;SDS011;53015;50.046;8.238;2023-02-24T08:06:48;24.13;;;12.27;;
66212;SDS011;53015;50.046;8.238;2023-02-24T08:09:15;23.67;;;11.85;;
66212;SDS011;53015;50.046;8.238;2023-02-24T08:11:41;26.90;;;13.05;;
66212;SDS011;53015;50.046;8.238;2023-02-24T08:14:07;23.08;;;12.45;;
66212;SDS011;53015;50.046;8.238;2023-02-24T08:16:33;23.85;;;12.98;;
66212;SDS011;53015;50.046;8.238;2023-02-24T08:18:58;26.33;;;12.00;;
66212;SDS011;53015;50.046;8.238;2023-02-24T08:21:24;21.40;;;11.57;;
66212;SDS011;53015;50.046;8.238;2023-02-24T08:23:50;26.73;;;12.27;;
66212;SDS011;53015;50.046;8.238;2023-02-24T08:26:15;24.45;;;12.32;;
66212;SDS011;53015;50.046;8.238;2023-02-24T08:28:41;22.20;;;12.07;;
66212;SDS011;53015;50.046;8.238;2023-02-24T08:31:06;24.33;;;11.48;;
66212;SDS011;53015;50.046;8.238;2023-02-24T08:33:32;24.67;;;12.15;;
66212;SDS011;53015;50.046;8.238;2023-02-24T08:35:58;22.75;;;12.38;;
66212;SDS011;53015;50.046;8.238;2023-02-24T08:38:23;24.73;;;12.57;;
66212;SDS011;53015;50.046;8.238;2023-02-24T08:40:50;22.77;;;11.60;;
66212;SDS011;53015;50.046;8.238;2023-02-24T08:43:18;23.92;;;12.10;;
66212;SDS011;53015;50.046;8.238;2023-02-24T08:45:47;27.70;;;12.10;;
66212;SDS011;53015;50.046;8.238;2023-02-24T08:48:14;22.13;;;12.18;;
66212;SDS011;53015;50.046;8.238;2023-02-24T08:50:41;23.33;;;11.07;;
66212;SDS011;53015;50.046;8.238;2023-02-24T08:53:06;25.23;;;12.10;;
66212;SDS011;53015;50.046;8.238;2023-02-24T08:55:32;23.40;;;11.75;;
66212;SDS011;53015;50.046;8.238;2023-02-24T08:57:58;22.27;;;11.40;;
66212;SDS011;53015;50.046;8.238;2023-02-24T09:00:24;22.10;;;10.95;;
66212;SDS011;53015;50.046;8.238;2023-02-24T09:02:50;24.55;;;10.95;;
66212;SDS011;53015;50.046;8.238;2023-02-24T09:05:15;26.55;;;12.02;;
66212;SDS011;53015;50.046;8.238;2023-02-24T09:07:41;20.80;;;10.75;;
66212;SDS011;53015;50.046;8.238;2023-02-24T09:10:07;21.88;;;11.55;;
66212;SDS011;53015;50.046;8.238;2023-02-24T09:12:37;22.45;;;11.40;;
66212;SDS011;53015;50.046;8.238;2023-02-24T09:15:04;21.85;;;11.80;;
66212;SDS011;53015;50.046;8.238;2023-02-24T09:17:30;21.23;;;11.43;;
66212;SDS011;53015;50.046;8.238;2023-02-24T09:19:56;23.17;;;11.52;;
66212;SDS011;53015;50.046;8.238;2023-02-24T09:22:22;27.35;;;11.90;;
66212;SDS011;53015;50.046;8.238;2023-02-24T09:24:49;21.13;;;11.07;;
66212;SDS011;53015;50.046;8.238;2023-02-24T09:27:14;27.40;;;11.10;;
66212;SDS011;53015;50.046;8.238;2023-02-24T09:29:40;23.77;;;11.15;;
66212;SDS011;53015;50.046;8.238;2023-02-24T09:32:06;21.95;;;10.55;;
66212;SDS011;53015;50.046;8.238;2023-02-24T09:34:32;17.98;;;10.38;;
66212;SDS011;53015;50.046;8.238;2023-02-24T09:36:59;20.85;;;9.60;;
66212;SDS011;53015;50.046;8.238;2023-02-24T09:39:24;19.17;;;9.55;;
66212;SDS011;53015;50.046;8.238;2023-02-24T09:41:50;21.00;;;9.52;;
66212;SDS011;53015;50.046;8.238;2023-02-24T09:44:16;16.83;;;8.40;;
66212;SDS011;53015;50.046;8.238;2023-02-24T09:46:48;14.65;;;8.32;;
66212;SDS011;53015;50.046;8.238;2023-02-24T09:49:19;16.60;;;8.25;;
66212;SDS011;53015;50.046;8.238;2023-02-24T09:51:48;15.30;;;7.65;;
66212;SDS011;53015;50.046;8.238;2023-02-24T09:54:14;17.10;;;8.23;;
66212;SDS011;53015;50.046;8.238;2023-02-24T09:56:41;15.30;;;8.23;;
66212;SDS011;53015;50.046;8.238;2023-02-24T09:59:17;17.58;;;8.60;;
66212;SDS011;53015;50.046;8.238;2023-02-24T10:01:47;19.52;;;8.57;;
66212;SDS011;53015;50.046;8.238;2023-02-24T10:04:22;13.57;;;6.82;;
66212;SDS011;53015;50.046;8.238;2023-02-24T10:07:03;14.68;;;7.80;;
66212;SDS011;53015;50.046;8.238;2023-02-24T10:09:31;13.35;;;7.55;;
66212;SDS011;53015;50.046;8.238;2023-02-24T10:12:00;13.77;;;6.70;;
66212;SDS011;53015;50.046;8.238;2023-02-24T10:14:33;14.43;;;6.85;;
66212;SDS011;53015;50.046;8.238;2023-02-24T10:17:02;13.23;;;6.85;;
66212;SDS011;53015;50.046;8.238;2023-02-24T10:19:35;13.73;;;7.30;;
66212;SDS011;53015;50.046;8.238;2023-02-24T10:22:02;13.52;;;7.20;;
66212;SDS011;53015;50.046;8.238;2023-02-24T10:24:32;14.90;;;6.95;;
66212;SDS011;53015;50.046;8.238;2023-02-24T10:27:05;13.80;;;7.63;;
66212;SDS011;53015;50.046;8.238;2023-02-24T10:29:38;13.30;;;7.72;;
66212;SDS011;53015;50.046;8.238;2023-02-24T10:32:16;14.95;;;7.03;;
66212;SDS011;53015;50.046;8.238;2023-02-24T10:34:43;16.00;;;7.45;;
66212;SDS011;53015;50.046;8.238;2023-02-24T10:37:10;12.63;;;7.05;;
66212;SDS011;53015;50.046;8.238;2023-02-24T10:39:36;12.55;;;6.47;;
66212;SDS011;53015;50.046;8.238;2023-02-24T10:42:03;12.15;;;6.72;;
66212;SDS011;53015;50.046;8.238;2023-02-24T10:44:29;14.70;;;7.07;;
66212;SDS011;53015;50.046;8.238;2023-02-24T10:46:58;18.42;;;7.80;;
66212;SDS011;53015;50.046;8.238;2023-02-24T10:49:24;18.95;;;6.65;;
66212;SDS011;53015;50.046;8.238;2023-02-24T10:51:51;14.43;;;7.47;;
66212;SDS011;53015;50.046;8.238;2023-02-24T10:54:19;13.05;;;6.97;;
66212;SDS011;53015;50.046;8.238;2023-02-24T10:56:47;14.38;;;7.30;;
66212;SDS011;53015;50.046;8.238;2023-02-24T10:59:16;12.65;;;6.75;;
66212;SDS011;53015;50.046;8.238;2023-02-24T11:01:43;13.10;;;6.70;;
66212;SDS011;53015;50.046;8.238;2023-02-24T11:04:10;15.95;;;7.97;;
66212;SDS011;53015;50.046;8.238;2023-02-24T11:06:37;14.90;;;7.80;;
66212;SDS011;53015;50.046;8.238;2023-02-24T11:09:03;14.18;;;7.90;;
66212;SDS011;53015;50.046;8.238;2023-02-24T11:11:30;14.25;;;8.23;;
66212;SDS011;53015;50.046;8.238;2023-02-24T11:13:59;15.27;;;8.05;;
66212;SDS011;53015;50.046;8.238;2023-02-24T11:16:26;17.23;;;8.48;;
66212;SDS011;53015;50.046;8.238;2023-02-24T11:18:52;16.95;;;8.40;;
66212;SDS011;53015;50.046;8.238;2023-02-24T11:21:21;14.73;;;7.80;;
66212;SDS011;53015;50.046;8.238;2023-02-24T11:23:48;14.85;;;8.32;;
66212;SDS011;53015;50.046;8.238;2023-02-24T11:26:17;17.10;;;7.35;;
66212;SDS011;53015;50.046;8.238;2023-02-24T11:28:51;14.60;;;7.82;;
66212;SDS011;53015;50.046;8.238;2023-02-24T11:31:29;14.70;;;7.75;;
66212;SDS011;53015;50.046;8.238;2023-02-24T11:34:15;12.93;;;7.30;;
66212;SDS011;53015;50.046;8.238;2023-02-24T11:36:46;16.20;;;8.48;;
66212;SDS011;53015;50.046;8.238;2023-02-24T11:39:27;16.02;;;7.57;;
66212;SDS011;53015;50.046;8.238;2023-02-24T11:42:12;13.68;;;7.70;;
66212;SDS011;53015;50.046;8.238;2023-02-24T11:44:43;14.90;;;8.50;;
66212;SDS011;53015;50.046;8.238;2023-02-24T11:47:15;15.15;;;8.07;;
66212;SDS011;53015;50.046;8.238;2023-02-24T11:49:44;16.40;;;8.52;;
66212;SDS011;53015;50.046;8.238;2023-02-24T11:52:13;16.08;;;8.05;;
66212;SDS011;53015;50.046;8.238;2023-02-24T11:54:43;13.57;;;7.82;;
66212;SDS011;53015;50.046;8.238;2023-02-24T11:57:12;16.20;;;7.70;;
66212;SDS011;53015;50.046;8.238;2023-02-24T11:59:45;12.48;;;7.18;;
66212;SDS011;53015;50.046;8.238;2023-02-24T12:02:15;14.73;;;7.35;;
66212;SDS011;53015;50.046;8.238;2023-02-24T12:04:49;11.80;;;6.68;;
66212;SDS011;53015;50.046;8.238;2023-02-24T12:07:21;14.75;;;6.88;;
66212;SDS011;53015;50.046;8.238;2023-02-24T12:09:50;10.45;;;6.20;;
66212;SDS011;53015;50.046;8.238;2023-02-24T12:12:22;16.23;;;6.65;;
66212;SDS011;53015;50.046;8.238;2023-02-24T12:14:52;14.05;;;7.20;;
66212;SDS011;53015;50.046;8.238;2023-02-24T12:17:22;9.45;;;5.75;;
66212;SDS011;53015;50.046;8.238;2023-02-24T12:19:57;11.00;;;5.20;;
66212;SDS011;53015;50.046;8.238;2023-02-24T12:22:27;7.53;;;4.25;;
66212;SDS011;53015;50.046;8.238;2023-02-24T12:24:57;11.20;;;4.55;;
66212;SDS011;53015;50.046;8.238;2023-02-24T12:27:31;8.13;;;4.53;;
66212;SDS011;53015;50.046;8.238;2023-02-24T12:30:09;8.32;;;4.70;;
66212;SDS011;53015;50.046;8.238;2023-02-24T12:32:59;9.90;;;4.70;;
66212;SDS011;53015;50.046;8.238;2023-02-24T12:35:32;8.57;;;3.90;;
66212;SDS011;53015;50.046;8.238;2023-02-24T12:38:11;9.10;;;4.30;;
66212;SDS011;53015;50.046;8.238;2023-02-24T12:40:48;5.78;;;3.80;;
66212;SDS011;53015;50.046;8.238;2023-02-24T12:43:23;7.53;;;4.43;;
66212;SDS011;53015;50.046;8.238;2023-02-24T12:45:58;8.68;;;4.20;;
66212;SDS011;53015;50.046;8.238;2023-02-24T12:48:30;7.80;;;4.25;;
66212;SDS011;53015;50.046;8.238;2023-02-24T12:51:10;7.20;;;4.28;;
66212;SDS011;53015;50.046;8.238;2023-02-24T12:53:45;6.35;;;3.85;;
66212;SDS011;53015;50.046;8.238;2023-02-24T12:56:14;8.30;;;4.15;;
66212;SDS011;53015;50.046;8.238;2023-02-24T12:58:45;9.27;;;3.85;;
66212;SDS011;53015;50.046;8.238;2023-02-24T13:01:15;9.27;;;3.92;;
66212;SDS011;53015;50.046;8.238;2023-02-24T13:03:54;8.73;;;3.95;;
66212;SDS011;53015;50.046;8.238;2023-02-24T13:06:26;9.43;;;3.92;;
66212;SDS011;53015;50.046;8.238;2023-02-24T13:09:02;5.00;;;3.03;;
66212;SDS011;53015;50.046;8.238;2023-02-24T13:11:35;6.40;;;3.80;;
66212;SDS011;53015;50.046;8.238;2023-02-24T13:14:10;5.95;;;3.60;;
66212;SDS011;53015;50.046;8.238;2023-02-24T13:16:41;6.78;;;3.97;;
66212;SDS011;53015;50.046;8.238;2023-02-24T13:19:16;8.00;;;3.92;;
66212;SDS011;53015;50.046;8.238;2023-02-24T13:21:53;10.48;;;3.63;;
66212;SDS011;53015;50.046;8.238;2023-02-24T13:24:20;9.05;;;4.97;;
66212;SDS011;53015;50.046;8.238;2023-02-24T13:26:47;9.00;;;5.53;;
66212;SDS011;53015;50.046;8.238;2023-02-24T13:29:13;9.05;;;5.15;;
66212;SDS011;53015;50.046;8.238;2023-02-24T13:31:40;11.07;;;6.35;;
66212;SDS011;53015;50.046;8.238;2023-02-24T13:34:14;10.77;;;5.65;;
66212;SDS011;53015;50.046;8.238;2023-02-24T13:36:54;11.10;;;6.03;;
66212;SDS011;53015;50.046;8.238;2023-02-24T13:39:21;11.02;;;5.57;;
66212;SDS011;53015;50.046;8.238;2023-02-24T13:41:48;15.65;;;6.13;;
66212;SDS011;53015;50.046;8.238;2023-02-24T13:44:25;10.90;;;5.70;;
66212;SDS011;53015;50.046;8.238;2023-02-24T13:46:57;15.27;;;6.63;;
66212;SDS011;53015;50.046;8.238;2023-02-24T13:49:48;12.07;;;6.07;;
66212;SDS011;53015;50.046;8.238;2023-02-24T13:52:31;14.18;;;6.97;;
66212;SDS011;53015;50.046;8.238;2023-02-24T13:55:10;13.18;;;6.47;;
66212;SDS011;53015;50.046;8.238;2023-02-24T13:57:46;15.25;;;6.80;;
66212;SDS011;53015;50.046;8.238;2023-02-24T14:00:29;14.32;;;6.38;;
66212;SDS011;53015;50.046;8.238;2023-02-24T14:03:06;15.57;;;5.95;;
66212;SDS011;53015;50.046;8.238;2023-02-24T14:05:35;13.45;;;5.95;;
66212;SDS011;53015;50.046;8.238;2023-02-24T14:08:00;10.93;;;5.35;;
66212;SDS011;53015;50.046;8.238;2023-02-24T14:10:29;14.07;;;6.28;;
66212;SDS011;53015;50.046;8.238;2023-02-24T14:13:00;11.68;;;5.82;;
66212;SDS011;53015;50.046;8.238;2023-02-24T14:15:30;11.32;;;5.40;;
66212;SDS011;53015;50.046;8.238;2023-02-24T14:17:58;9.57;;;4.68;;
66212;SDS011;53015;50.046;8.238;2023-02-24T14:20:26;9.35;;;4.60;;
66212;SDS011;53015;50.046;8.238;2023-02-24T14:22:53;8.82;;;4.82;;
66212;SDS011;53015;50.046;8.238;2023-02-24T14:25:19;10.10;;;4.38;;
66212;SDS011;53015;50.046;8.238;2023-02-24T14:27:47;8.85;;;4.03;;
66212;SDS011;53015;50.046;8.238;2023-02-24T14:30:22;9.70;;;4.05;;
66212;SDS011;53015;50.046;8.238;2023-02-24T14:32:50;7.90;;;4.25;;
66212;SDS011;53015;50.046;8.238;2023-02-24T14:35:17;6.03;;;3.78;;
66212;SDS011;53015;50.046;8.238;2023-02-24T14:37:50;7.88;;;4.47;;
66212;SDS011;53015;50.046;8.238;2023-02-24T14:40:15;7.47;;;4.03;;
66212;SDS011;53015;50.046;8.238;2023-02-24T14:42:45;8.10;;;3.65;;